sensor_id;sensor_type;location;lat;lon;timestamp;P1;durP1;ratioP1;P2;durP2;ratioP2
10497;SDS011;5296;51.060;13.750;2022-10-22T00:00:45;22.35;;;18.42;;
10497;SDS011;5296;51.060;13.750;2022-10-22T00:05:47;24.20;;;19.23;;
10497;SDS011;5296;51.060;13.750;2022-10-22T00:10:48;22.10;;;18.38;;
10497;SDS011;5296;51.060;13.750;2022-10-22T00:15:50;22.23;;;19.13;;
10497;SDS011;5296;51.060;13.750;2022-10-22T00:20:51;24.77;;;19.25;;
10497;SDS011;5296;51.060;13.750;2022-10-22T00:25:53;23.25;;;18.95;;
10497;SDS011;5296;51.060;13.750;2022-10-22T00:30:58;23.23;;;19.23;;
10497;SDS011;5296;51.060;13.750;2022-10-22T00:36:00;25.23;;;19.75;;
10497;SDS011;5296;51.060;13.750;2022-10-22T00:41:02;25.63;;;20.50;;
10497;SDS011;5296;51.060;13.750;2022-10-22T00:46:03;25.13;;;21.20;;
10497;SDS011;5296;51.060;13.750;2022-10-22T00:51:05;28.38;;;21.05;;
10497;SDS011;5296;51.060;13.750;2022-10-22T00:56:08;24.10;;;20.55;;
10497;SDS011;5296;51.060;13.750;2022-10-22T01:01:12;26.13;;;20.90;;
10497;SDS011;5296;51.060;13.750;2022-10-22T01:06:27;29.88;;;22.08;;
10497;SDS011;5296;51.060;13.750;2022-10-22T01:16:53;26.80;;;22.10;;
10497;SDS011;5296;51.060;13.750;2022-10-22T01:22:19;24.95;;;20.70;;
10497;SDS011;5296;51.060;13.750;2022-10-22T01:33:00;28.25;;;21.52;;
10497;SDS011;5296;51.060;13.750;2022-10-22T01:38:05;27.13;;;21.00;;
10497;SDS011;5296;51.060;13.750;2022-10-22T01:43:09;25.15;;;20.98;;
10497;SDS011;5296;51.060;13.750;2022-10-22T01:48:18;25.33;;;20.83;;
10497;SDS011;5296;51.060;13.750;2022-10-22T02:04:12;28.02;;;21.88;;
10497;SDS011;5296;51.060;13.750;2022-10-22T02:09:20;26.58;;;20.15;;
10497;SDS011;5296;51.060;13.750;2022-10-22T02:14:22;29.38;;;22.67;;
10497;SDS011;5296;51.060;13.750;2022-10-22T02:19:31;27.45;;;21.45;;
10497;SDS011;5296;51.060;13.750;2022-10-22T02:24:39;24.50;;;20.63;;
10497;SDS011;5296;51.060;13.750;2022-10-22T02:29:46;26.55;;;21.33;;
10497;SDS011;5296;51.060;13.750;2022-10-22T02:34:52;28.40;;;22.02;;
10497;SDS011;5296;51.060;13.750;2022-10-22T02:39:54;25.80;;;20.90;;
10497;SDS011;5296;51.060;13.750;2022-10-22T02:44:56;27.73;;;20.55;;
10497;SDS011;5296;51.060;13.750;2022-10-22T02:49:58;29.75;;;20.98;;
10497;SDS011;5296;51.060;13.750;2022-10-22T02:54:59;28.83;;;20.98;;
10497;SDS011;5296;51.060;13.750;2022-10-22T03:00:01;28.95;;;21.70;;
10497;SDS011;5296;51.060;13.750;2022-10-22T03:05:03;25.58;;;20.73;;
10497;SDS011;5296;51.060;13.750;2022-10-22T03:10:05;27.02;;;21.17;;
10497;SDS011;5296;51.060;13.750;2022-10-22T03:15:07;25.38;;;19.30;;
10497;SDS011;5296;51.060;13.750;2022-10-22T03:20:09;25.73;;;20.95;;
10497;SDS011;5296;51.060;13.750;2022-10-22T03:25:11;24.10;;;20.35;;
10497;SDS011;5296;51.060;13.750;2022-10-22T03:30:15;30.98;;;21.23;;
10497;SDS011;5296;51.060;13.750;2022-10-22T03:35:17;26.40;;;20.48;;
10497;SDS011;5296;51.060;13.750;2022-10-22T03:40:18;25.98;;;20.25;;
10497;SDS011;5296;51.060;13.750;2022-10-22T03:45:20;26.58;;;21.17;;
10497;SDS011;5296;51.060;13.750;2022-10-22T03:50:22;27.10;;;20.15;;
10497;SDS011;5296;51.060;13.750;2022-10-22T03:55:23;27.45;;;20.65;;
10497;SDS011;5296;51.060;13.750;2022-10-22T04:00:25;23.35;;;19.73;;
10497;SDS011;5296;51.060;13.750;2022-10-22T04:05:26;25.92;;;21.05;;
10497;SDS011;5296;51.060;13.750;2022-10-22T04:10:28;28.35;;;19.88;;
10497;SDS011;5296;51.060;13.750;2022-10-22T04:15:29;26.33;;;20.55;;
10497;SDS011;5296;51.060;13.750;2022-10-22T04:20:32;29.90;;;20.80;;
10497;SDS011;5296;51.060;13.750;2022-10-22T04:25:34;28.55;;;21.00;;
10497;SDS011;5296;51.060;13.750;2022-10-22T04:30:35;25.30;;;20.15;;
10497;SDS011;5296;51.060;13.750;2022-10-22T04:35:37;25.85;;;20.98;;
10497;SDS011;5296;51.060;13.750;2022-10-22T04:40:40;25.40;;;20.25;;
10497;SDS011;5296;51.060;13.750;2022-10-22T04:45:41;26.85;;;20.05;;
10497;SDS011;5296;51.060;13.750;2022-10-22T04:50:43;24.42;;;20.17;;
10497;SDS011;5296;51.060;13.750;2022-10-22T04:55:44;26.27;;;19.77;;
10497;SDS011;5296;51.060;13.750;2022-10-22T05:00:46;25.88;;;20.65;;
10497;SDS011;5296;51.060;13.750;2022-10-22T05:05:47;25.48;;;19.42;;
10497;SDS011;5296;51.060;13.750;2022-10-22T05:10:49;26.05;;;20.15;;
10497;SDS011;5296;51.060;13.750;2022-10-22T05:15:50;23.55;;;19.35;;
10497;SDS011;5296;51.060;13.750;2022-10-22T05:20:52;26.67;;;19.60;;
10497;SDS011;5296;51.060;13.750;2022-10-22T05:25:53;26.10;;;18.85;;
10497;SDS011;5296;51.060;13.750;2022-10-22T05:30:55;24.40;;;19.73;;
10497;SDS011;5296;51.060;13.750;2022-10-22T05:35:58;23.67;;;18.58;;
10497;SDS011;5296;51.060;13.750;2022-10-22T05:41:05;25.23;;;18.60;;
10497;SDS011;5296;51.060;13.750;2022-10-22T05:46:12;25.88;;;19.15;;
10497;SDS011;5296;51.060;13.750;2022-10-22T05:51:21;22.20;;;18.33;;
10497;SDS011;5296;51.060;13.750;2022-10-22T05:56:25;23.17;;;18.00;;
10497;SDS011;5296;51.060;13.750;2022-10-22T06:01:31;24.98;;;18.35;;
10497;SDS011;5296;51.060;13.750;2022-10-22T06:06:38;26.65;;;18.45;;
10497;SDS011;5296;51.060;13.750;2022-10-22T06:11:42;19.85;;;17.65;;
10497;SDS011;5296;51.060;13.750;2022-10-22T06:16:43;22.33;;;17.83;;
10497;SDS011;5296;51.060;13.750;2022-10-22T06:21:45;21.25;;;17.10;;
10497;SDS011;5296;51.060;13.750;2022-10-22T06:26:51;23.63;;;17.88;;
10497;SDS011;5296;51.060;13.750;2022-10-22T06:31:52;24.73;;;18.05;;
10497;SDS011;5296;51.060;13.750;2022-10-22T06:36:54;23.25;;;18.17;;
10497;SDS011;5296;51.060;13.750;2022-10-22T06:41:55;22.20;;;17.70;;
10497;SDS011;5296;51.060;13.750;2022-10-22T06:46:57;23.95;;;17.23;;
10497;SDS011;5296;51.060;13.750;2022-10-22T06:51:58;24.55;;;17.80;;
10497;SDS011;5296;51.060;13.750;2022-10-22T06:57:00;24.85;;;17.30;;
10497;SDS011;5296;51.060;13.750;2022-10-22T07:02:01;26.17;;;17.63;;
10497;SDS011;5296;51.060;13.750;2022-10-22T07:07:03;24.65;;;18.05;;
10497;SDS011;5296;51.060;13.750;2022-10-22T07:12:05;19.98;;;17.20;;
10497;SDS011;5296;51.060;13.750;2022-10-22T07:17:06;20.98;;;17.25;;
10497;SDS011;5296;51.060;13.750;2022-10-22T07:22:08;23.60;;;16.77;;
10497;SDS011;5296;51.060;13.750;2022-10-22T07:27:09;22.55;;;16.48;;
10497;SDS011;5296;51.060;13.750;2022-10-22T07:32:12;21.08;;;17.25;;
10497;SDS011;5296;51.060;13.750;2022-10-22T07:37:13;27.25;;;16.98;;
10497;SDS011;5296;51.060;13.750;2022-10-22T07:42:15;22.13;;;17.33;;
10497;SDS011;5296;51.060;13.750;2022-10-22T07:47:17;20.38;;;16.52;;
10497;SDS011;5296;51.060;13.750;2022-10-22T07:52:18;19.80;;;16.67;;
10497;SDS011;5296;51.060;13.750;2022-10-22T07:57:20;18.67;;;16.50;;
10497;SDS011;5296;51.060;13.750;2022-10-22T08:02:21;23.67;;;16.92;;
10497;SDS011;5296;51.060;13.750;2022-10-22T08:07:23;20.33;;;17.27;;
10497;SDS011;5296;51.060;13.750;2022-10-22T08:12:25;22.48;;;17.20;;
10497;SDS011;5296;51.060;13.750;2022-10-22T08:17:26;22.67;;;17.42;;
10497;SDS011;5296;51.060;13.750;2022-10-22T08:22:28;21.67;;;17.42;;
10497;SDS011;5296;51.060;13.750;2022-10-22T08:27:29;22.67;;;16.50;;
10497;SDS011;5296;51.060;13.750;2022-10-22T08:32:31;20.80;;;16.55;;
10497;SDS011;5296;51.060;13.750;2022-10-22T08:37:33;16.98;;;14.15;;
10497;SDS011;5296;51.060;13.750;2022-10-22T08:53:14;17.50;;;14.52;;
10497;SDS011;5296;51.060;13.750;2022-10-22T09:03:51;16.98;;;13.52;;
10497;SDS011;5296;51.060;13.750;2022-10-22T09:08:58;16.73;;;13.98;;
10497;SDS011;5296;51.060;13.750;2022-10-22T09:14:00;14.88;;;12.65;;
10497;SDS011;5296;51.060;13.750;2022-10-22T09:29:40;13.48;;;11.43;;
10497;SDS011;5296;51.060;13.750;2022-10-22T09:34:45;15.35;;;10.85;;
10497;SDS011;5296;51.060;13.750;2022-10-22T09:39:50;13.35;;;11.95;;
10497;SDS011;5296;51.060;13.750;2022-10-22T09:44:53;12.77;;;10.30;;
10497;SDS011;5296;51.060;13.750;2022-10-22T09:55:18;12.32;;;10.35;;
10497;SDS011;5296;51.060;13.750;2022-10-22T10:00:20;13.82;;;10.18;;
10497;SDS011;5296;51.060;13.750;2022-10-22T10:05:29;13.88;;;11.18;;
10497;SDS011;5296;51.060;13.750;2022-10-22T10:16:34;12.18;;;10.95;;
10497;SDS011;5296;51.060;13.750;2022-10-22T10:21:24;11.35;;;10.02;;
10497;SDS011;5296;51.060;13.750;2022-10-22T10:37:35;10.73;;;9.43;;
10497;SDS011;5296;51.060;13.750;2022-10-22T10:58:58;9.32;;;8.05;;
10497;SDS011;5296;51.060;13.750;2022-10-22T11:09:29;8.32;;;7.47;;
10497;SDS011;5296;51.060;13.750;2022-10-22T11:19:59;8.82;;;7.18;;
10497;SDS011;5296;51.060;13.750;2022-10-22T11:30:14;7.97;;;6.47;;
10497;SDS011;5296;51.060;13.750;2022-10-22T11:35:23;10.80;;;7.85;;
10497;SDS011;5296;51.060;13.750;2022-10-22T11:45:30;8.35;;;6.30;;
10497;SDS011;5296;51.060;13.750;2022-10-22T12:11:19;6.63;;;6.03;;
10497;SDS011;5296;51.060;13.750;2022-10-22T12:16:25;6.88;;;5.93;;
10497;SDS011;5296;51.060;13.750;2022-10-22T12:22:01;6.25;;;5.65;;
10497;SDS011;5296;51.060;13.750;2022-10-22T12:27:21;6.63;;;6.03;;
10497;SDS011;5296;51.060;13.750;2022-10-22T12:32:32;6.60;;;6.00;;
10497;SDS011;5296;51.060;13.750;2022-10-22T12:37:37;7.13;;;6.43;;
10497;SDS011;5296;51.060;13.750;2022-10-22T12:42:45;7.00;;;6.35;;
10497;SDS011;5296;51.060;13.750;2022-10-22T12:47:51;7.13;;;5.93;;
10497;SDS011;5296;51.060;13.750;2022-10-22T12:52:56;6.30;;;5.45;;
10497;SDS011;5296;51.060;13.750;2022-10-22T12:57:59;6.65;;;6.05;;
10497;SDS011;5296;51.060;13.750;2022-10-22T13:03:02;6.15;;;5.50;;
10497;SDS011;5296;51.060;13.750;2022-10-22T13:08:09;7.03;;;5.60;;
10497;SDS011;5296;51.060;13.750;2022-10-22T13:18:49;6.38;;;5.78;;
10497;SDS011;5296;51.060;13.750;2022-10-22T13:23:52;6.18;;;5.20;;
10497;SDS011;5296;51.060;13.750;2022-10-22T13:28:56;4.55;;;2.10;;
10497;SDS011;5296;51.060;13.750;2022-10-22T13:33:59;2.45;;;1.55;;
10497;SDS011;5296;51.060;13.750;2022-10-22T13:39:12;1.25;;;1.08;;
10497;SDS011;5296;51.060;13.750;2022-10-22T13:44:17;1.85;;;1.27;;
10497;SDS011;5296;51.060;13.750;2022-10-22T13:49:20;1.60;;;1.40;;
10497;SDS011;5296;51.060;13.750;2022-10-22T13:54:23;2.45;;;1.23;;
10497;SDS011;5296;51.060;13.750;2022-10-22T13:59:25;2.22;;;1.17;;
10497;SDS011;5296;51.060;13.750;2022-10-22T14:04:26;3.35;;;1.23;;
10497;SDS011;5296;51.060;13.750;2022-10-22T14:09:28;1.17;;;1.10;;
10497;SDS011;5296;51.060;13.750;2022-10-22T14:14:29;2.95;;;1.20;;
10497;SDS011;5296;51.060;13.750;2022-10-22T14:19:31;1.58;;;1.30;;
10497;SDS011;5296;51.060;13.750;2022-10-22T14:24:32;1.40;;;1.30;;
10497;SDS011;5296;51.060;13.750;2022-10-22T14:29:34;1.83;;;1.15;;
10497;SDS011;5296;51.060;13.750;2022-10-22T14:34:35;2.88;;;1.20;;
10497;SDS011;5296;51.060;13.750;2022-10-22T14:39:37;0.90;;;0.90;;
10497;SDS011;5296;51.060;13.750;2022-10-22T14:44:39;2.63;;;1.10;;
10497;SDS011;5296;51.060;13.750;2022-10-22T14:49:41;2.75;;;1.10;;
10497;SDS011;5296;51.060;13.750;2022-10-22T14:54:42;1.52;;;1.00;;
10497;SDS011;5296;51.060;13.750;2022-10-22T14:59:44;1.20;;;1.10;;
10497;SDS011;5296;51.060;13.750;2022-10-22T15:04:46;1.35;;;1.10;;
10497;SDS011;5296;51.060;13.750;2022-10-22T15:09:48;1.70;;;1.20;;
10497;SDS011;5296;51.060;13.750;2022-10-22T15:14:50;1.05;;;1.00;;
10497;SDS011;5296;51.060;13.750;2022-10-22T15:19:52;1.27;;;1.15;;
10497;SDS011;5296;51.060;13.750;2022-10-22T15:24:54;1.05;;;1.00;;
10497;SDS011;5296;51.060;13.750;2022-10-22T15:29:55;1.30;;;1.20;;
10497;SDS011;5296;51.060;13.750;2022-10-22T15:34:59;1.83;;;1.48;;
10497;SDS011;5296;51.060;13.750;2022-10-22T15:40:02;1.60;;;1.20;;
10497;SDS011;5296;51.060;13.750;2022-10-22T15:45:05;1.52;;;1.25;;
10497;SDS011;5296;51.060;13.750;2022-10-22T15:50:07;1.33;;;1.23;;
10497;SDS011;5296;51.060;13.750;2022-10-22T15:55:09;2.92;;;1.35;;
10497;SDS011;5296;51.060;13.750;2022-10-22T16:00:16;1.35;;;1.25;;
10497;SDS011;5296;51.060;13.750;2022-10-22T16:05:18;1.98;;;1.20;;
10497;SDS011;5296;51.060;13.750;2022-10-22T16:10:20;2.05;;;1.30;;
10497;SDS011;5296;51.060;13.750;2022-10-22T16:15:21;1.73;;;1.40;;
10497;SDS011;5296;51.060;13.750;2022-10-22T16:20:23;1.60;;;1.50;;
10497;SDS011;5296;51.060;13.750;2022-10-22T16:25:24;5.78;;;4.40;;
10497;SDS011;5296;51.060;13.750;2022-10-22T16:30:26;6.18;;;5.57;;
10497;SDS011;5296;51.060;13.750;2022-10-22T16:35:28;8.02;;;6.88;;
10497;SDS011;5296;51.060;13.750;2022-10-22T16:40:30;8.73;;;7.90;;
10497;SDS011;5296;51.060;13.750;2022-10-22T16:45:31;8.50;;;7.60;;
10497;SDS011;5296;51.060;13.750;2022-10-22T16:50:33;9.55;;;8.57;;
10497;SDS011;5296;51.060;13.750;2022-10-22T16:55:35;10.77;;;9.05;;
10497;SDS011;5296;51.060;13.750;2022-10-22T17:00:37;12.82;;;10.75;;
10497;SDS011;5296;51.060;13.750;2022-10-22T17:05:42;15.07;;;12.10;;
10497;SDS011;5296;51.060;13.750;2022-10-22T17:10:43;15.07;;;12.82;;
10497;SDS011;5296;51.060;13.750;2022-10-22T17:15:45;13.35;;;12.00;;
10497;SDS011;5296;51.060;13.750;2022-10-22T17:20:46;16.42;;;14.20;;
10497;SDS011;5296;51.060;13.750;2022-10-22T17:25:48;18.45;;;14.85;;
10497;SDS011;5296;51.060;13.750;2022-10-22T17:30:49;16.85;;;14.35;;
10497;SDS011;5296;51.060;13.750;2022-10-22T17:35:51;17.13;;;14.57;;
10497;SDS011;5296;51.060;13.750;2022-10-22T17:40:53;17.73;;;14.55;;
10497;SDS011;5296;51.060;13.750;2022-10-22T17:51:26;17.58;;;15.38;;
10497;SDS011;5296;51.060;13.750;2022-10-22T17:56:29;19.42;;;16.40;;
10497;SDS011;5296;51.060;13.750;2022-10-22T18:01:32;17.85;;;15.18;;
10497;SDS011;5296;51.060;13.750;2022-10-22T18:06:35;17.63;;;15.63;;
10497;SDS011;5296;51.060;13.750;2022-10-22T18:11:36;20.95;;;16.83;;
10497;SDS011;5296;51.060;13.750;2022-10-22T18:16:39;18.33;;;16.35;;
10497;SDS011;5296;51.060;13.750;2022-10-22T18:21:40;20.42;;;16.25;;
10497;SDS011;5296;51.060;13.750;2022-10-22T18:26:42;19.58;;;16.58;;
10497;SDS011;5296;51.060;13.750;2022-10-22T18:31:44;18.13;;;16.20;;
10497;SDS011;5296;51.060;13.750;2022-10-22T18:36:45;21.55;;;16.45;;
10497;SDS011;5296;51.060;13.750;2022-10-22T18:41:47;18.50;;;16.60;;
10497;SDS011;5296;51.060;13.750;2022-10-22T18:46:49;21.65;;;17.23;;
10497;SDS011;5296;51.060;13.750;2022-10-22T18:51:50;18.63;;;16.58;;
10497;SDS011;5296;51.060;13.750;2022-10-22T18:56:54;19.05;;;16.45;;
10497;SDS011;5296;51.060;13.750;2022-10-22T19:02:03;20.65;;;16.40;;
10497;SDS011;5296;51.060;13.750;2022-10-22T19:07:04;18.80;;;16.85;;
10497;SDS011;5296;51.060;13.750;2022-10-22T19:12:06;18.52;;;16.35;;
10497;SDS011;5296;51.060;13.750;2022-10-22T19:17:09;18.38;;;16.10;;
10497;SDS011;5296;51.060;13.750;2022-10-22T19:22:10;17.17;;;15.45;;
10497;SDS011;5296;51.060;13.750;2022-10-22T19:27:13;17.58;;;15.68;;
10497;SDS011;5296;51.060;13.750;2022-10-22T19:32:14;17.98;;;16.17;;
10497;SDS011;5296;51.060;13.750;2022-10-22T19:37:17;19.25;;;16.52;;
10497;SDS011;5296;51.060;13.750;2022-10-22T19:42:19;18.30;;;16.38;;
10497;SDS011;5296;51.060;13.750;2022-10-22T19:47:21;19.60;;;16.63;;
10497;SDS011;5296;51.060;13.750;2022-10-22T19:52:22;18.75;;;16.55;;
10497;SDS011;5296;51.060;13.750;2022-10-22T19:57:24;16.83;;;15.02;;
10497;SDS011;5296;51.060;13.750;2022-10-22T20:02:25;18.38;;;15.48;;
10497;SDS011;5296;51.060;13.750;2022-10-22T20:07:27;16.15;;;14.23;;
10497;SDS011;5296;51.060;13.750;2022-10-22T20:12:29;14.77;;;12.65;;
10497;SDS011;5296;51.060;13.750;2022-10-22T20:17:30;11.68;;;10.57;;
10497;SDS011;5296;51.060;13.750;2022-10-22T20:22:32;13.02;;;9.68;;
10497;SDS011;5296;51.060;13.750;2022-10-22T20:27:33;12.75;;;10.15;;
10497;SDS011;5296;51.060;13.750;2022-10-22T20:32:36;13.38;;;10.00;;
10497;SDS011;5296;51.060;13.750;2022-10-22T20:37:38;13.02;;;10.25;;
10497;SDS011;5296;51.060;13.750;2022-10-22T20:42:39;10.50;;;9.40;;
10497;SDS011;5296;51.060;13.750;2022-10-22T20:47:41;10.50;;;9.50;;
10497;SDS011;5296;51.060;13.750;2022-10-22T20:52:51;13.23;;;9.85;;
10497;SDS011;5296;51.060;13.750;2022-10-22T20:57:53;13.38;;;10.00;;
10497;SDS011;5296;51.060;13.750;2022-10-22T21:02:55;11.93;;;8.90;;
10497;SDS011;5296;51.060;13.750;2022-10-22T21:07:56;11.93;;;9.05;;
10497;SDS011;5296;51.060;13.750;2022-10-22T21:12:58;9.77;;;8.63;;
10497;SDS011;5296;51.060;13.750;2022-10-22T21:18:00;9.48;;;8.48;;
10497;SDS011;5296;51.060;13.750;2022-10-22T21:23:01;12.63;;;9.35;;
10497;SDS011;5296;51.060;13.750;2022-10-22T21:28:03;9.77;;;8.77;;
10497;SDS011;5296;51.060;13.750;2022-10-22T21:33:04;10.88;;;9.77;;
10497;SDS011;5296;51.060;13.750;2022-10-22T21:38:06;10.20;;;9.10;;
10497;SDS011;5296;51.060;13.750;2022-10-22T21:43:08;10.88;;;9.88;;
10497;SDS011;5296;51.060;13.750;2022-10-22T21:48:10;10.05;;;9.05;;
10497;SDS011;5296;51.060;13.750;2022-10-22T21:53:12;9.60;;;8.60;;
10497;SDS011;5296;51.060;13.750;2022-10-22T21:58:14;10.70;;;9.32;;
10497;SDS011;5296;51.060;13.750;2022-10-22T22:03:15;8.98;;;8.18;;
10497;SDS011;5296;51.060;13.750;2022-10-22T22:08:17;8.38;;;7.57;;
10497;SDS011;5296;51.060;13.750;2022-10-22T22:13:19;10.18;;;8.32;;
10497;SDS011;5296;51.060;13.750;2022-10-22T22:18:25;9.73;;;8.73;;
10497;SDS011;5296;51.060;13.750;2022-10-22T22:23:26;9.60;;;8.60;;
10497;SDS011;5296;51.060;13.750;2022-10-22T22:28:28;8.27;;;7.57;;
10497;SDS011;5296;51.060;13.750;2022-10-22T22:33:30;8.55;;;7.68;;
10497;SDS011;5296;51.060;13.750;2022-10-22T22:38:32;8.57;;;7.70;;
10497;SDS011;5296;51.060;13.750;2022-10-22T22:43:34;11.02;;;7.47;;
10497;SDS011;5296;51.060;13.750;2022-10-22T22:48:36;11.80;;;7.38;;
10497;SDS011;5296;51.060;13.750;2022-10-22T22:53:37;8.18;;;7.28;;
10497;SDS011;5296;51.060;13.750;2022-10-22T22:58:39;9.15;;;7.78;;
10497;SDS011;5296;51.060;13.750;2022-10-22T23:03:41;9.98;;;7.53;;
10497;SDS011;5296;51.060;13.750;2022-10-22T23:08:46;9.18;;;7.15;;
10497;SDS011;5296;51.060;13.750;2022-10-22T23:13:59;8.30;;;7.50;;
10497;SDS011;5296;51.060;13.750;2022-10-22T23:19:03;8.88;;;7.45;;
10497;SDS011;5296;51.060;13.750;2022-10-22T23:24:06;10.05;;;7.43;;
10497;SDS011;5296;51.060;13.750;2022-10-22T23:29:10;8.43;;;7.63;;
10497;SDS011;5296;51.060;13.750;2022-10-22T23:34:15;10.18;;;7.70;;
10497;SDS011;5296;51.060;13.750;2022-10-22T23:39:19;7.38;;;6.57;;
10497;SDS011;5296;51.060;13.750;2022-10-22T23:44:22;6.97;;;6.28;;
10497;SDS011;5296;51.060;13.750;2022-10-22T23:49:24;7.90;;;6.97;;
10497;SDS011;5296;51.060;13.750;2022-10-22T23:54:26;7.25;;;6.43;;
10497;SDS011;5296;51.060;13.750;2022-10-22T23:59:27;7.38;;;6.60;;
